Impacts TAF Board
For situational awareness. Not to be used for flight planning purposes.
IDs:

KATL - Atlanta/Hartsfield-J, GA, US

Issued at 0730 UTC 21 Oct 2018
Updated at 0737 UTC 21 Oct 2018
Potential Impact None Slight Moderate High
Time<<22/08Z 22/09Z 22/10Z 22/11Z 22/12Z 22/13Z 22/14Z 22/15Z 22/16Z 22/17Z 22/18Z 22/19Z 22/20Z
Type PRVL PRVL PRVL PRVL
VIS >6 >6 >6 >6
CIG -- -- -- --
Cover SCT SCT SCT SCT
FltCat VFR VFR VFR VFR
WX -- -- -- --
WDir 50 50 50 50
WSpd 3 3 3 3
WGst -- -- -- --
Raw TAF
KATL 210730Z 2108/2212 33013G23KT P6SM SKC
  FM211400 01010G18KT P6SM SKC
  FM212000 35006KT P6SM SKC
  FM220000 34004KT P6SM FEW250
  FM220500 05003KT P6SM SCT250


METAR Board
Radar Display
Forecast Discussion
For situational awareness. Not to be used for flight planning purposes.